Hiddenite, NC (28636)

5:16 PM EST on December 26, 2014 (GMT -0500)
RAWS TAYLORSVILLE (LENOIR) NC US | Change Station
CLOSE
Current Station
Personal Weather Station
Location: Hiddenite, NC
Elevation: 1189 ft
Nearby Weather Stations

Elev 1189 ft 35.91 °N, 81.14 °W | Updated 1 hour ago

Clear
Clear
58 °F
Feels Like 58 °F
N
4
Wind Variable Wind from South
Gusts 9.0 mph

Today
High -- | Low -- °F
--% Chance of Precip.
Yesterday
High -- | Low -- °F
Precip. -- in
7:33 AM 5:17 PM
Waxing Crescent, 29% visible
Pressure 30.26 in
Visibility 10.0 miles
Clouds Clear
Dew Point 34 °F
Humidity 41%
Rainfall 0.00 in
Snow Depth Not available.
UV 0 out of 12
Pollen .90 out of 12
Air Quality Not available.
Flu Activity Not available.
METAR KSVH 262155Z AUTO 00000KT 10SM CLR 13/02 A3026 RMK AO2 T01250019

More Conditions Fewer Conditions

Pressure 30.26 in
Visibility 10.0 miles
Clouds Clear
Dew Point 34 °F
Humidity 41%
Rainfall 0.00 in
Snow Depth Not available.
UV 0 out of 12
Pollen .90 out of 12
Air Quality Not available.
Flu Activity Not available.
METAR KSVH 262155Z AUTO 00000KT 10SM CLR 13/02 A3026 RMK AO2 T01250019

More Conditions Fewer Conditions

10-Day Weather Forecast

Almanac

Astronomy

Dec. 26, 2014 Rise Set
Actual Time
Civil Twilight
Nautical Twilight
Astronomical Twilight
Moon
Length of Visible Light
Length of Day
Tomorrow will be .
, % of the Moon is Illuminated

Today's Extremes

State Highs State Lows

Community

WunderPhotos

Upload Photos

1,780,735 photos uploaded!

WunderBlogs® & News

Nearby

Air Quality

  Air Quality AQ Index Pollutant
Not available.

Snow Depth

Station Depth Elevation

Earthquake Activity

City Distance Mag. Time & Date
Minimum magnitude displayed is 2.5.

Coastal Water Temperatures

Place Temperature

Nearby Weather Stations